sensor_id;sensor_type;location;lat;lon;timestamp;P1;durP1;ratioP1;P2;durP2;ratioP2
27566;SDS011;15006;48.584;9.186;2022-08-19T00:02:27;17.85;;;16.02;;
27566;SDS011;15006;48.584;9.186;2022-08-19T00:05:31;16.48;;;15.02;;
27566;SDS011;15006;48.584;9.186;2022-08-19T00:08:14;16.60;;;15.10;;
27566;SDS011;15006;48.584;9.186;2022-08-19T00:11:13;17.83;;;16.15;;
27566;SDS011;15006;48.584;9.186;2022-08-19T00:14:11;18.15;;;16.35;;
27566;SDS011;15006;48.584;9.186;2022-08-19T00:16:57;17.73;;;16.08;;
27566;SDS011;15006;48.584;9.186;2022-08-19T00:19:36;16.73;;;15.30;;
27566;SDS011;15006;48.584;9.186;2022-08-19T00:22:05;16.98;;;15.50;;
27566;SDS011;15006;48.584;9.186;2022-08-19T00:24:34;17.92;;;16.15;;
27566;SDS011;15006;48.584;9.186;2022-08-19T00:27:02;18.00;;;16.30;;
27566;SDS011;15006;48.584;9.186;2022-08-19T00:29:36;17.77;;;16.05;;
27566;SDS011;15006;48.584;9.186;2022-08-19T00:32:03;17.75;;;16.10;;
27566;SDS011;15006;48.584;9.186;2022-08-19T00:34:31;17.27;;;15.75;;
27566;SDS011;15006;48.584;9.186;2022-08-19T00:36:57;17.08;;;15.45;;
27566;SDS011;15006;48.584;9.186;2022-08-19T00:39:23;17.63;;;16.02;;
27566;SDS011;15006;48.584;9.186;2022-08-19T00:41:49;17.30;;;15.65;;
27566;SDS011;15006;48.584;9.186;2022-08-19T00:44:22;16.92;;;15.43;;
27566;SDS011;15006;48.584;9.186;2022-08-19T00:46:51;18.48;;;16.58;;
27566;SDS011;15006;48.584;9.186;2022-08-19T00:49:25;18.27;;;16.42;;
27566;SDS011;15006;48.584;9.186;2022-08-19T00:52:08;18.25;;;16.35;;
27566;SDS011;15006;48.584;9.186;2022-08-19T00:54:40;18.63;;;16.00;;
27566;SDS011;15006;48.584;9.186;2022-08-19T00:57:10;17.50;;;15.75;;
27566;SDS011;15006;48.584;9.186;2022-08-19T00:59:42;18.10;;;15.98;;
27566;SDS011;15006;48.584;9.186;2022-08-19T01:02:14;18.35;;;16.55;;
27566;SDS011;15006;48.584;9.186;2022-08-19T01:04:43;18.30;;;16.40;;
27566;SDS011;15006;48.584;9.186;2022-08-19T01:07:12;18.67;;;16.88;;
27566;SDS011;15006;48.584;9.186;2022-08-19T01:09:39;21.23;;;17.02;;
27566;SDS011;15006;48.584;9.186;2022-08-19T01:12:05;19.95;;;16.48;;
27566;SDS011;15006;48.584;9.186;2022-08-19T01:14:34;18.75;;;16.98;;
27566;SDS011;15006;48.584;9.186;2022-08-19T01:17:03;18.92;;;17.02;;
27566;SDS011;15006;48.584;9.186;2022-08-19T01:19:39;22.15;;;18.38;;
27566;SDS011;15006;48.584;9.186;2022-08-19T01:24:55;20.63;;;18.48;;
27566;SDS011;15006;48.584;9.186;2022-08-19T01:27:22;24.73;;;18.77;;
27566;SDS011;15006;48.584;9.186;2022-08-19T01:29:49;21.27;;;18.45;;
27566;SDS011;15006;48.584;9.186;2022-08-19T01:32:15;19.33;;;17.25;;
27566;SDS011;15006;48.584;9.186;2022-08-19T01:34:42;20.90;;;18.58;;
27566;SDS011;15006;48.584;9.186;2022-08-19T01:37:12;21.13;;;18.45;;
27566;SDS011;15006;48.584;9.186;2022-08-19T01:39:40;21.08;;;18.13;;
27566;SDS011;15006;48.584;9.186;2022-08-19T01:42:07;21.13;;;18.52;;
27566;SDS011;15006;48.584;9.186;2022-08-19T01:44:38;20.52;;;18.38;;
27566;SDS011;15006;48.584;9.186;2022-08-19T01:47:06;22.10;;;19.70;;
27566;SDS011;15006;48.584;9.186;2022-08-19T01:49:35;21.25;;;19.00;;
27566;SDS011;15006;48.584;9.186;2022-08-19T01:52:02;21.50;;;19.35;;
27566;SDS011;15006;48.584;9.186;2022-08-19T01:54:30;23.48;;;19.58;;
27566;SDS011;15006;48.584;9.186;2022-08-19T01:56:59;21.58;;;19.30;;
27566;SDS011;15006;48.584;9.186;2022-08-19T01:59:30;23.08;;;19.60;;
27566;SDS011;15006;48.584;9.186;2022-08-19T02:01:58;21.92;;;19.60;;
27566;SDS011;15006;48.584;9.186;2022-08-19T02:04:24;24.33;;;19.70;;
27566;SDS011;15006;48.584;9.186;2022-08-19T02:06:52;19.63;;;17.55;;
27566;SDS011;15006;48.584;9.186;2022-08-19T02:09:19;24.02;;;18.50;;
27566;SDS011;15006;48.584;9.186;2022-08-19T02:11:45;20.67;;;18.23;;
27566;SDS011;15006;48.584;9.186;2022-08-19T02:14:11;20.42;;;18.38;;
27566;SDS011;15006;48.584;9.186;2022-08-19T02:16:38;23.38;;;18.67;;
27566;SDS011;15006;48.584;9.186;2022-08-19T02:19:05;23.13;;;18.70;;
27566;SDS011;15006;48.584;9.186;2022-08-19T02:21:31;21.95;;;18.83;;
27566;SDS011;15006;48.584;9.186;2022-08-19T02:23:58;21.15;;;18.58;;
27566;SDS011;15006;48.584;9.186;2022-08-19T02:26:24;21.20;;;18.60;;
27566;SDS011;15006;48.584;9.186;2022-08-19T02:28:51;22.10;;;18.13;;
27566;SDS011;15006;48.584;9.186;2022-08-19T02:31:20;22.17;;;19.17;;
27566;SDS011;15006;48.584;9.186;2022-08-19T02:33:48;21.73;;;19.35;;
27566;SDS011;15006;48.584;9.186;2022-08-19T02:36:15;26.90;;;19.58;;
27566;SDS011;15006;48.584;9.186;2022-08-19T02:38:43;22.67;;;18.60;;
27566;SDS011;15006;48.584;9.186;2022-08-19T02:41:17;20.27;;;18.17;;
27566;SDS011;15006;48.584;9.186;2022-08-19T02:43:47;21.42;;;18.55;;
27566;SDS011;15006;48.584;9.186;2022-08-19T02:46:14;21.80;;;18.77;;
27566;SDS011;15006;48.584;9.186;2022-08-19T02:48:43;23.23;;;19.00;;
27566;SDS011;15006;48.584;9.186;2022-08-19T02:51:14;21.15;;;18.85;;
27566;SDS011;15006;48.584;9.186;2022-08-19T02:53:56;22.13;;;18.48;;
27566;SDS011;15006;48.584;9.186;2022-08-19T02:56:22;20.38;;;18.23;;
27566;SDS011;15006;48.584;9.186;2022-08-19T02:58:53;21.00;;;18.33;;
27566;SDS011;15006;48.584;9.186;2022-08-19T03:01:24;21.30;;;18.17;;
27566;SDS011;15006;48.584;9.186;2022-08-19T03:03:54;22.10;;;18.38;;
27566;SDS011;15006;48.584;9.186;2022-08-19T03:06:21;22.83;;;19.95;;
27566;SDS011;15006;48.584;9.186;2022-08-19T03:08:48;21.45;;;19.15;;
27566;SDS011;15006;48.584;9.186;2022-08-19T03:11:16;22.23;;;19.83;;
27566;SDS011;15006;48.584;9.186;2022-08-19T03:13:43;24.50;;;19.95;;
27566;SDS011;15006;48.584;9.186;2022-08-19T03:16:12;23.27;;;19.52;;
27566;SDS011;15006;48.584;9.186;2022-08-19T03:18:38;24.75;;;19.23;;
27566;SDS011;15006;48.584;9.186;2022-08-19T03:21:04;23.10;;;20.60;;
27566;SDS011;15006;48.584;9.186;2022-08-19T03:23:31;23.52;;;19.45;;
27566;SDS011;15006;48.584;9.186;2022-08-19T03:25:58;21.23;;;18.83;;
27566;SDS011;15006;48.584;9.186;2022-08-19T03:28:24;23.40;;;19.45;;
27566;SDS011;15006;48.584;9.186;2022-08-19T03:30:55;21.58;;;19.08;;
27566;SDS011;15006;48.584;9.186;2022-08-19T03:33:46;19.90;;;17.83;;
27566;SDS011;15006;48.584;9.186;2022-08-19T03:36:13;23.50;;;18.35;;
27566;SDS011;15006;48.584;9.186;2022-08-19T03:38:51;21.02;;;18.60;;
27566;SDS011;15006;48.584;9.186;2022-08-19T03:41:23;20.40;;;17.40;;
27566;SDS011;15006;48.584;9.186;2022-08-19T03:43:55;20.75;;;18.38;;
27566;SDS011;15006;48.584;9.186;2022-08-19T03:46:24;18.95;;;16.92;;
27566;SDS011;15006;48.584;9.186;2022-08-19T03:48:53;20.10;;;17.95;;
27566;SDS011;15006;48.584;9.186;2022-08-19T03:51:23;20.83;;;18.70;;
27566;SDS011;15006;48.584;9.186;2022-08-19T03:53:56;21.42;;;18.77;;
27566;SDS011;15006;48.584;9.186;2022-08-19T03:56:24;20.88;;;18.60;;
27566;SDS011;15006;48.584;9.186;2022-08-19T03:58:53;23.15;;;19.33;;
27566;SDS011;15006;48.584;9.186;2022-08-19T04:01:25;21.67;;;19.48;;
27566;SDS011;15006;48.584;9.186;2022-08-19T04:03:53;21.10;;;19.00;;
27566;SDS011;15006;48.584;9.186;2022-08-19T04:06:29;23.27;;;20.65;;
27566;SDS011;15006;48.584;9.186;2022-08-19T04:08:58;21.00;;;18.73;;
27566;SDS011;15006;48.584;9.186;2022-08-19T04:11:30;22.23;;;19.92;;
27566;SDS011;15006;48.584;9.186;2022-08-19T04:14:00;22.20;;;18.48;;
27566;SDS011;15006;48.584;9.186;2022-08-19T04:16:27;20.95;;;18.73;;
27566;SDS011;15006;48.584;9.186;2022-08-19T04:18:54;21.55;;;19.35;;
27566;SDS011;15006;48.584;9.186;2022-08-19T04:21:22;22.15;;;19.77;;
27566;SDS011;15006;48.584;9.186;2022-08-19T04:23:51;25.05;;;20.27;;
27566;SDS011;15006;48.584;9.186;2022-08-19T04:26:20;24.35;;;19.52;;
27566;SDS011;15006;48.584;9.186;2022-08-19T04:28:49;21.23;;;18.92;;
27566;SDS011;15006;48.584;9.186;2022-08-19T04:31:20;24.30;;;20.08;;
27566;SDS011;15006;48.584;9.186;2022-08-19T04:33:55;24.92;;;20.40;;
27566;SDS011;15006;48.584;9.186;2022-08-19T04:36:24;23.88;;;21.05;;
27566;SDS011;15006;48.584;9.186;2022-08-19T04:38:57;23.30;;;20.83;;
27566;SDS011;15006;48.584;9.186;2022-08-19T04:41:36;26.75;;;21.15;;
27566;SDS011;15006;48.584;9.186;2022-08-19T04:44:21;28.13;;;23.58;;
27566;SDS011;15006;48.584;9.186;2022-08-19T04:46:48;31.30;;;23.95;;
27566;SDS011;15006;48.584;9.186;2022-08-19T04:49:16;31.25;;;24.40;;
27566;SDS011;15006;48.584;9.186;2022-08-19T04:51:47;34.85;;;25.90;;
27566;SDS011;15006;48.584;9.186;2022-08-19T04:54:15;34.60;;;25.77;;
27566;SDS011;15006;48.584;9.186;2022-08-19T04:56:43;34.40;;;25.98;;
27566;SDS011;15006;48.584;9.186;2022-08-19T04:59:09;30.38;;;25.73;;
27566;SDS011;15006;48.584;9.186;2022-08-19T05:01:36;30.20;;;25.15;;
27566;SDS011;15006;48.584;9.186;2022-08-19T05:04:03;27.85;;;23.83;;
27566;SDS011;15006;48.584;9.186;2022-08-19T05:06:32;32.33;;;24.25;;
27566;SDS011;15006;48.584;9.186;2022-08-19T05:08:59;34.00;;;24.92;;
27566;SDS011;15006;48.584;9.186;2022-08-19T05:11:29;32.83;;;25.15;;
27566;SDS011;15006;48.584;9.186;2022-08-19T05:13:58;30.55;;;24.52;;
27566;SDS011;15006;48.584;9.186;2022-08-19T05:16:27;31.83;;;24.55;;
27566;SDS011;15006;48.584;9.186;2022-08-19T05:18:54;35.00;;;25.77;;
27566;SDS011;15006;48.584;9.186;2022-08-19T05:21:39;31.95;;;24.65;;
27566;SDS011;15006;48.584;9.186;2022-08-19T05:24:26;32.10;;;24.67;;
27566;SDS011;15006;48.584;9.186;2022-08-19T05:26:53;27.48;;;23.38;;
27566;SDS011;15006;48.584;9.186;2022-08-19T05:29:22;28.02;;;23.00;;
27566;SDS011;15006;48.584;9.186;2022-08-19T05:31:51;31.35;;;25.48;;
27566;SDS011;15006;48.584;9.186;2022-08-19T05:34:22;33.17;;;25.83;;
27566;SDS011;15006;48.584;9.186;2022-08-19T05:36:53;31.30;;;25.50;;
27566;SDS011;15006;48.584;9.186;2022-08-19T05:39:24;30.15;;;25.38;;
27566;SDS011;15006;48.584;9.186;2022-08-19T05:41:55;30.40;;;24.35;;
27566;SDS011;15006;48.584;9.186;2022-08-19T05:44:25;34.63;;;26.23;;
27566;SDS011;15006;48.584;9.186;2022-08-19T05:46:56;31.30;;;25.13;;
27566;SDS011;15006;48.584;9.186;2022-08-19T05:49:24;33.65;;;26.02;;
27566;SDS011;15006;48.584;9.186;2022-08-19T05:51:52;32.45;;;26.10;;
27566;SDS011;15006;48.584;9.186;2022-08-19T05:54:20;31.15;;;25.73;;
27566;SDS011;15006;48.584;9.186;2022-08-19T05:56:48;33.80;;;26.02;;
27566;SDS011;15006;48.584;9.186;2022-08-19T05:59:16;30.42;;;24.95;;
27566;SDS011;15006;48.584;9.186;2022-08-19T06:01:44;29.70;;;25.25;;
27566;SDS011;15006;48.584;9.186;2022-08-19T06:04:12;29.85;;;24.20;;
27566;SDS011;15006;48.584;9.186;2022-08-19T06:06:39;27.77;;;24.08;;
27566;SDS011;15006;48.584;9.186;2022-08-19T06:09:06;27.30;;;22.63;;
27566;SDS011;15006;48.584;9.186;2022-08-19T06:14:09;31.13;;;25.23;;
27566;SDS011;15006;48.584;9.186;2022-08-19T06:16:39;29.50;;;23.50;;
27566;SDS011;15006;48.584;9.186;2022-08-19T06:19:09;29.58;;;23.17;;
27566;SDS011;15006;48.584;9.186;2022-08-19T06:21:41;29.13;;;23.25;;
27566;SDS011;15006;48.584;9.186;2022-08-19T06:24:11;31.77;;;24.95;;
27566;SDS011;15006;48.584;9.186;2022-08-19T06:26:41;31.70;;;24.75;;
27566;SDS011;15006;48.584;9.186;2022-08-19T06:29:12;28.10;;;24.40;;
27566;SDS011;15006;48.584;9.186;2022-08-19T06:34:12;30.52;;;25.25;;
27566;SDS011;15006;48.584;9.186;2022-08-19T06:36:42;31.23;;;24.63;;
27566;SDS011;15006;48.584;9.186;2022-08-19T06:39:17;29.50;;;24.85;;
27566;SDS011;15006;48.584;9.186;2022-08-19T06:41:51;29.55;;;24.63;;
27566;SDS011;15006;48.584;9.186;2022-08-19T06:44:22;32.63;;;23.95;;
27566;SDS011;15006;48.584;9.186;2022-08-19T06:46:54;27.42;;;23.50;;
27566;SDS011;15006;48.584;9.186;2022-08-19T06:49:23;29.30;;;24.67;;
27566;SDS011;15006;48.584;9.186;2022-08-19T06:51:56;29.13;;;24.15;;
27566;SDS011;15006;48.584;9.186;2022-08-19T06:54:23;27.17;;;24.30;;
27566;SDS011;15006;48.584;9.186;2022-08-19T06:56:51;27.90;;;24.05;;
27566;SDS011;15006;48.584;9.186;2022-08-19T06:59:33;30.02;;;23.27;;
27566;SDS011;15006;48.584;9.186;2022-08-19T07:02:03;30.63;;;23.20;;
27566;SDS011;15006;48.584;9.186;2022-08-19T07:04:33;29.85;;;23.35;;
27566;SDS011;15006;48.584;9.186;2022-08-19T07:07:11;29.77;;;23.42;;
27566;SDS011;15006;48.584;9.186;2022-08-19T07:09:43;28.42;;;23.80;;
27566;SDS011;15006;48.584;9.186;2022-08-19T07:12:10;26.13;;;23.27;;
27566;SDS011;15006;48.584;9.186;2022-08-19T07:14:42;27.05;;;22.63;;
27566;SDS011;15006;48.584;9.186;2022-08-19T07:17:11;31.05;;;24.33;;
27566;SDS011;15006;48.584;9.186;2022-08-19T07:19:39;25.98;;;23.17;;
27566;SDS011;15006;48.584;9.186;2022-08-19T07:22:07;26.08;;;23.27;;
27566;SDS011;15006;48.584;9.186;2022-08-19T07:24:34;27.85;;;24.25;;
27566;SDS011;15006;48.584;9.186;2022-08-19T07:27:05;30.63;;;24.02;;
27566;SDS011;15006;48.584;9.186;2022-08-19T07:29:37;29.27;;;24.15;;
27566;SDS011;15006;48.584;9.186;2022-08-19T07:32:09;31.98;;;24.98;;
27566;SDS011;15006;48.584;9.186;2022-08-19T07:34:38;30.08;;;23.70;;
27566;SDS011;15006;48.584;9.186;2022-08-19T07:37:16;27.42;;;23.98;;
27566;SDS011;15006;48.584;9.186;2022-08-19T07:39:46;31.52;;;24.23;;
27566;SDS011;15006;48.584;9.186;2022-08-19T07:42:18;32.25;;;24.70;;
27566;SDS011;15006;48.584;9.186;2022-08-19T07:44:46;28.02;;;23.92;;
27566;SDS011;15006;48.584;9.186;2022-08-19T07:47:16;29.60;;;23.92;;
27566;SDS011;15006;48.584;9.186;2022-08-19T07:49:46;28.83;;;23.75;;
27566;SDS011;15006;48.584;9.186;2022-08-19T07:52:12;27.88;;;23.42;;
27566;SDS011;15006;48.584;9.186;2022-08-19T07:54:39;29.38;;;24.38;;
27566;SDS011;15006;48.584;9.186;2022-08-19T07:57:06;26.80;;;22.77;;
27566;SDS011;15006;48.584;9.186;2022-08-19T07:59:33;26.48;;;22.25;;
27566;SDS011;15006;48.584;9.186;2022-08-19T08:02:00;28.23;;;23.55;;
27566;SDS011;15006;48.584;9.186;2022-08-19T08:04:27;27.77;;;23.20;;
27566;SDS011;15006;48.584;9.186;2022-08-19T08:07:14;28.23;;;22.70;;
27566;SDS011;15006;48.584;9.186;2022-08-19T08:10:00;26.85;;;22.35;;
27566;SDS011;15006;48.584;9.186;2022-08-19T08:12:28;29.63;;;22.42;;
27566;SDS011;15006;48.584;9.186;2022-08-19T08:15:09;26.48;;;22.35;;
27566;SDS011;15006;48.584;9.186;2022-08-19T08:17:41;26.23;;;22.70;;
27566;SDS011;15006;48.584;9.186;2022-08-19T08:20:08;25.15;;;21.83;;
27566;SDS011;15006;48.584;9.186;2022-08-19T08:22:36;24.00;;;21.42;;
27566;SDS011;15006;48.584;9.186;2022-08-19T08:25:40;25.38;;;22.40;;
27566;SDS011;15006;48.584;9.186;2022-08-19T08:28:06;30.23;;;22.85;;
27566;SDS011;15006;48.584;9.186;2022-08-19T08:30:34;26.13;;;23.33;;
27566;SDS011;15006;48.584;9.186;2022-08-19T08:33:02;28.98;;;23.20;;
27566;SDS011;15006;48.584;9.186;2022-08-19T08:35:28;28.80;;;23.35;;
27566;SDS011;15006;48.584;9.186;2022-08-19T08:37:57;27.17;;;23.23;;
27566;SDS011;15006;48.584;9.186;2022-08-19T08:40:26;23.77;;;21.23;;
27566;SDS011;15006;48.584;9.186;2022-08-19T08:46:00;25.52;;;22.75;;
27566;SDS011;15006;48.584;9.186;2022-08-19T08:48:56;27.00;;;22.70;;
27566;SDS011;15006;48.584;9.186;2022-08-19T08:51:59;24.48;;;21.45;;
27566;SDS011;15006;48.584;9.186;2022-08-19T08:54:44;29.48;;;22.92;;
27566;SDS011;15006;48.584;9.186;2022-08-19T08:57:15;29.00;;;23.40;;
27566;SDS011;15006;48.584;9.186;2022-08-19T08:59:57;28.33;;;23.13;;
27566;SDS011;15006;48.584;9.186;2022-08-19T09:02:26;27.25;;;22.05;;
27566;SDS011;15006;48.584;9.186;2022-08-19T09:04:53;25.55;;;22.13;;
27566;SDS011;15006;48.584;9.186;2022-08-19T09:15:48;23.27;;;20.77;;
27566;SDS011;15006;48.584;9.186;2022-08-19T09:18:25;25.42;;;21.20;;
27566;SDS011;15006;48.584;9.186;2022-08-19T09:20:51;25.50;;;22.02;;
27566;SDS011;15006;48.584;9.186;2022-08-19T09:23:17;28.90;;;23.23;;
27566;SDS011;15006;48.584;9.186;2022-08-19T09:25:43;23.48;;;20.42;;
27566;SDS011;15006;48.584;9.186;2022-08-19T09:28:09;25.48;;;21.75;;
27566;SDS011;15006;48.584;9.186;2022-08-19T09:30:40;27.60;;;22.35;;
27566;SDS011;15006;48.584;9.186;2022-08-19T09:33:06;27.23;;;22.40;;
27566;SDS011;15006;48.584;9.186;2022-08-19T09:35:33;28.67;;;23.60;;
27566;SDS011;15006;48.584;9.186;2022-08-19T09:38:00;28.65;;;25.02;;
27566;SDS011;15006;48.584;9.186;2022-08-19T09:40:27;27.02;;;23.55;;
27566;SDS011;15006;48.584;9.186;2022-08-19T09:42:56;27.40;;;23.23;;
27566;SDS011;15006;48.584;9.186;2022-08-19T09:45:28;24.77;;;22.05;;
27566;SDS011;15006;48.584;9.186;2022-08-19T09:47:54;24.27;;;21.63;;
27566;SDS011;15006;48.584;9.186;2022-08-19T09:50:22;24.58;;;21.85;;
27566;SDS011;15006;48.584;9.186;2022-08-19T09:52:49;28.50;;;23.52;;
27566;SDS011;15006;48.584;9.186;2022-08-19T09:55:17;30.88;;;24.50;;
27566;SDS011;15006;48.584;9.186;2022-08-19T09:57:46;28.88;;;24.13;;
27566;SDS011;15006;48.584;9.186;2022-08-19T10:00:12;32.53;;;23.45;;
27566;SDS011;15006;48.584;9.186;2022-08-19T10:02:39;31.38;;;25.45;;
27566;SDS011;15006;48.584;9.186;2022-08-19T10:05:05;32.90;;;25.67;;
27566;SDS011;15006;48.584;9.186;2022-08-19T10:07:50;33.40;;;25.80;;
27566;SDS011;15006;48.584;9.186;2022-08-19T10:10:16;31.73;;;25.38;;
27566;SDS011;15006;48.584;9.186;2022-08-19T10:12:42;33.58;;;26.35;;
27566;SDS011;15006;48.584;9.186;2022-08-19T10:15:12;32.90;;;26.13;;
27566;SDS011;15006;48.584;9.186;2022-08-19T10:17:38;34.47;;;26.77;;
27566;SDS011;15006;48.584;9.186;2022-08-19T10:20:04;35.53;;;27.52;;
27566;SDS011;15006;48.584;9.186;2022-08-19T10:22:31;36.33;;;27.17;;
27566;SDS011;15006;48.584;9.186;2022-08-19T10:25:00;36.95;;;27.38;;
27566;SDS011;15006;48.584;9.186;2022-08-19T10:27:27;33.22;;;27.83;;
27566;SDS011;15006;48.584;9.186;2022-08-19T10:29:53;36.83;;;27.30;;
27566;SDS011;15006;48.584;9.186;2022-08-19T10:32:19;36.45;;;28.38;;
27566;SDS011;15006;48.584;9.186;2022-08-19T10:34:47;36.95;;;29.30;;
27566;SDS011;15006;48.584;9.186;2022-08-19T10:37:14;37.85;;;28.77;;
27566;SDS011;15006;48.584;9.186;2022-08-19T10:39:43;37.45;;;28.50;;
27566;SDS011;15006;48.584;9.186;2022-08-19T10:42:13;38.90;;;29.88;;
27566;SDS011;15006;48.584;9.186;2022-08-19T10:44:48;39.55;;;30.63;;
27566;SDS011;15006;48.584;9.186;2022-08-19T10:47:20;45.38;;;30.48;;
27566;SDS011;15006;48.584;9.186;2022-08-19T10:49:55;37.13;;;29.80;;
27566;SDS011;15006;48.584;9.186;2022-08-19T10:52:40;38.50;;;29.63;;
27566;SDS011;15006;48.584;9.186;2022-08-19T10:55:10;40.65;;;30.20;;
27566;SDS011;15006;48.584;9.186;2022-08-19T10:57:55;34.97;;;28.67;;
27566;SDS011;15006;48.584;9.186;2022-08-19T11:00:23;36.35;;;28.90;;
27566;SDS011;15006;48.584;9.186;2022-08-19T11:02:51;40.47;;;30.40;;
27566;SDS011;15006;48.584;9.186;2022-08-19T11:05:17;37.78;;;29.65;;
27566;SDS011;15006;48.584;9.186;2022-08-19T11:07:44;41.22;;;30.38;;
27566;SDS011;15006;48.584;9.186;2022-08-19T11:10:11;39.72;;;30.15;;
27566;SDS011;15006;48.584;9.186;2022-08-19T11:12:40;41.65;;;31.85;;
27566;SDS011;15006;48.584;9.186;2022-08-19T11:15:09;40.45;;;30.73;;
27566;SDS011;15006;48.584;9.186;2022-08-19T11:17:39;42.97;;;32.33;;
27566;SDS011;15006;48.584;9.186;2022-08-19T11:20:06;44.00;;;32.50;;
27566;SDS011;15006;48.584;9.186;2022-08-19T11:22:33;44.25;;;31.77;;
27566;SDS011;15006;48.584;9.186;2022-08-19T11:24:59;46.20;;;33.38;;
27566;SDS011;15006;48.584;9.186;2022-08-19T11:27:26;49.63;;;34.42;;
27566;SDS011;15006;48.584;9.186;2022-08-19T11:29:57;46.05;;;33.45;;
27566;SDS011;15006;48.584;9.186;2022-08-19T11:32:23;49.50;;;35.05;;
27566;SDS011;15006;48.584;9.186;2022-08-19T11:34:49;46.58;;;34.60;;
27566;SDS011;15006;48.584;9.186;2022-08-19T11:37:15;47.63;;;35.25;;
27566;SDS011;15006;48.584;9.186;2022-08-19T11:39:41;49.03;;;35.67;;
27566;SDS011;15006;48.584;9.186;2022-08-19T11:42:07;49.33;;;34.90;;
27566;SDS011;15006;48.584;9.186;2022-08-19T11:44:51;48.00;;;34.28;;
27566;SDS011;15006;48.584;9.186;2022-08-19T11:47:18;47.55;;;34.63;;
27566;SDS011;15006;48.584;9.186;2022-08-19T11:50:01;46.60;;;33.75;;
27566;SDS011;15006;48.584;9.186;2022-08-19T11:52:33;47.75;;;33.72;;
27566;SDS011;15006;48.584;9.186;2022-08-19T11:54:59;47.72;;;33.97;;
27566;SDS011;15006;48.584;9.186;2022-08-19T11:57:27;42.25;;;32.70;;
27566;SDS011;15006;48.584;9.186;2022-08-19T11:59:53;44.72;;;33.20;;
27566;SDS011;15006;48.584;9.186;2022-08-19T12:02:19;44.95;;;32.97;;
27566;SDS011;15006;48.584;9.186;2022-08-19T12:04:45;43.25;;;32.80;;
27566;SDS011;15006;48.584;9.186;2022-08-19T12:07:11;42.22;;;32.80;;
27566;SDS011;15006;48.584;9.186;2022-08-19T12:09:37;47.10;;;33.38;;
27566;SDS011;15006;48.584;9.186;2022-08-19T12:12:04;40.38;;;32.03;;
27566;SDS011;15006;48.584;9.186;2022-08-19T12:14:31;44.60;;;33.00;;
27566;SDS011;15006;48.584;9.186;2022-08-19T12:16:57;42.55;;;31.48;;
27566;SDS011;15006;48.584;9.186;2022-08-19T12:19:23;49.78;;;33.90;;
27566;SDS011;15006;48.584;9.186;2022-08-19T12:21:50;39.95;;;32.15;;
27566;SDS011;15006;48.584;9.186;2022-08-19T12:24:18;40.75;;;30.92;;
27566;SDS011;15006;48.584;9.186;2022-08-19T12:26:48;46.65;;;33.10;;
27566;SDS011;15006;48.584;9.186;2022-08-19T12:29:22;42.70;;;32.50;;
27566;SDS011;15006;48.584;9.186;2022-08-19T12:31:58;46.53;;;33.47;;
27566;SDS011;15006;48.584;9.186;2022-08-19T12:34:30;39.90;;;30.83;;
27566;SDS011;15006;48.584;9.186;2022-08-19T12:37:09;37.72;;;30.58;;
27566;SDS011;15006;48.584;9.186;2022-08-19T12:39:37;38.70;;;31.33;;
27566;SDS011;15006;48.584;9.186;2022-08-19T12:44:35;36.33;;;29.05;;
27566;SDS011;15006;48.584;9.186;2022-08-19T12:47:04;35.63;;;28.80;;
27566;SDS011;15006;48.584;9.186;2022-08-19T12:49:32;35.50;;;29.38;;
27566;SDS011;15006;48.584;9.186;2022-08-19T12:52:05;34.75;;;28.92;;
27566;SDS011;15006;48.584;9.186;2022-08-19T12:54:34;34.17;;;27.85;;
27566;SDS011;15006;48.584;9.186;2022-08-19T12:57:09;33.03;;;27.38;;
27566;SDS011;15006;48.584;9.186;2022-08-19T12:59:37;32.15;;;27.33;;
27566;SDS011;15006;48.584;9.186;2022-08-19T13:02:05;29.17;;;26.08;;
27566;SDS011;15006;48.584;9.186;2022-08-19T13:04:32;32.35;;;26.08;;
27566;SDS011;15006;48.584;9.186;2022-08-19T13:07:02;32.22;;;26.48;;
27566;SDS011;15006;48.584;9.186;2022-08-19T13:09:28;33.17;;;27.88;;
27566;SDS011;15006;48.584;9.186;2022-08-19T13:12:19;31.35;;;26.65;;
27566;SDS011;15006;48.584;9.186;2022-08-19T13:14:45;31.73;;;26.17;;
27566;SDS011;15006;48.584;9.186;2022-08-19T13:17:27;30.63;;;27.38;;
27566;SDS011;15006;48.584;9.186;2022-08-19T13:20:00;31.23;;;25.05;;
27566;SDS011;15006;48.584;9.186;2022-08-19T13:22:26;29.85;;;26.65;;
27566;SDS011;15006;48.584;9.186;2022-08-19T13:25:02;29.27;;;25.48;;
27566;SDS011;15006;48.584;9.186;2022-08-19T13:27:39;29.83;;;26.60;;
27566;SDS011;15006;48.584;9.186;2022-08-19T13:30:24;29.27;;;25.95;;
27566;SDS011;15006;48.584;9.186;2022-08-19T13:33:09;29.55;;;26.23;;
27566;SDS011;15006;48.584;9.186;2022-08-19T13:35:49;32.03;;;26.55;;
27566;SDS011;15006;48.584;9.186;2022-08-19T13:38:21;31.95;;;26.20;;
27566;SDS011;15006;48.584;9.186;2022-08-19T13:40:48;29.95;;;26.33;;
27566;SDS011;15006;48.584;9.186;2022-08-19T13:43:17;32.83;;;26.83;;
27566;SDS011;15006;48.584;9.186;2022-08-19T13:45:48;30.70;;;25.95;;
27566;SDS011;15006;48.584;9.186;2022-08-19T13:48:21;28.92;;;25.48;;
27566;SDS011;15006;48.584;9.186;2022-08-19T13:50:47;29.20;;;25.75;;
27566;SDS011;15006;48.584;9.186;2022-08-19T13:53:14;30.63;;;25.50;;
27566;SDS011;15006;48.584;9.186;2022-08-19T13:55:41;27.48;;;24.40;;
27566;SDS011;15006;48.584;9.186;2022-08-19T13:58:09;30.65;;;25.40;;
27566;SDS011;15006;48.584;9.186;2022-08-19T14:00:37;28.83;;;24.00;;
27566;SDS011;15006;48.584;9.186;2022-08-19T14:03:06;29.17;;;25.13;;
27566;SDS011;15006;48.584;9.186;2022-08-19T14:05:32;28.88;;;23.40;;
27566;SDS011;15006;48.584;9.186;2022-08-19T14:08:00;29.63;;;24.60;;
27566;SDS011;15006;48.584;9.186;2022-08-19T14:10:27;28.75;;;25.08;;
27566;SDS011;15006;48.584;9.186;2022-08-19T14:12:56;28.38;;;25.42;;
27566;SDS011;15006;48.584;9.186;2022-08-19T14:15:25;30.95;;;25.35;;
27566;SDS011;15006;48.584;9.186;2022-08-19T14:17:53;28.65;;;24.65;;
27566;SDS011;15006;48.584;9.186;2022-08-19T14:20:19;31.15;;;26.05;;
27566;SDS011;15006;48.584;9.186;2022-08-19T14:22:47;31.15;;;25.40;;
27566;SDS011;15006;48.584;9.186;2022-08-19T14:25:15;29.98;;;25.10;;
27566;SDS011;15006;48.584;9.186;2022-08-19T14:27:45;28.27;;;25.23;;
27566;SDS011;15006;48.584;9.186;2022-08-19T14:30:14;27.02;;;24.23;;
27566;SDS011;15006;48.584;9.186;2022-08-19T14:32:46;25.75;;;23.13;;
27566;SDS011;15006;48.584;9.186;2022-08-19T14:35:13;26.60;;;23.80;;
27566;SDS011;15006;48.584;9.186;2022-08-19T14:37:41;27.27;;;24.23;;
27566;SDS011;15006;48.584;9.186;2022-08-19T14:40:09;25.83;;;23.00;;
27566;SDS011;15006;48.584;9.186;2022-08-19T14:42:36;27.45;;;23.35;;
27566;SDS011;15006;48.584;9.186;2022-08-19T14:45:02;24.38;;;21.88;;
27566;SDS011;15006;48.584;9.186;2022-08-19T14:47:32;27.35;;;23.30;;
27566;SDS011;15006;48.584;9.186;2022-08-19T14:49:58;26.08;;;23.08;;
27566;SDS011;15006;48.584;9.186;2022-08-19T14:52:24;23.40;;;21.00;;
27566;SDS011;15006;48.584;9.186;2022-08-19T14:54:51;25.00;;;22.27;;
27566;SDS011;15006;48.584;9.186;2022-08-19T14:57:17;24.85;;;22.35;;
27566;SDS011;15006;48.584;9.186;2022-08-19T14:59:43;26.27;;;22.63;;
27566;SDS011;15006;48.584;9.186;2022-08-19T15:02:09;26.50;;;23.55;;